createdAt,value
2022-09-06T00:01:43.236Z,99.90
2022-09-06T00:04:15.022Z,99.90
2022-09-06T00:06:42.678Z,99.90
2022-09-06T00:09:09.771Z,99.90
2022-09-06T00:11:37.123Z,99.90
2022-09-06T00:14:04.436Z,99.90
2022-09-06T00:16:32.632Z,99.90
2022-09-06T00:18:59.732Z,99.90
2022-09-06T00:21:31.028Z,99.90
2022-09-06T00:23:58.216Z,99.90
2022-09-06T00:26:25.637Z,99.90
2022-09-06T00:28:53.012Z,99.90
2022-09-06T00:31:22.931Z,99.90
2022-09-06T00:33:50.663Z,1.00
2022-09-06T00:36:18.497Z,1.00
2022-09-06T00:38:45.826Z,1.00
2022-09-06T00:41:15.157Z,1.00
2022-09-06T00:43:43.175Z,99.90
2022-09-06T00:46:14.845Z,99.90
2022-09-06T00:48:43.442Z,99.90
2022-09-06T00:51:13.322Z,99.90
2022-09-06T00:53:40.411Z,99.90
2022-09-06T00:56:07.623Z,99.90
2022-09-06T00:58:35.621Z,99.90
2022-09-06T01:01:02.856Z,1.00
2022-09-06T01:03:30.066Z,99.90
2022-09-06T01:06:34.604Z,99.90
2022-09-06T01:09:27.000Z,99.90
2022-09-06T01:12:42.106Z,1.00
2022-09-06T01:15:17.982Z,1.00
2022-09-06T01:18:35.648Z,1.00
2022-09-06T01:21:20.822Z,1.00
2022-09-06T01:24:01.739Z,1.00
2022-09-06T01:26:53.432Z,1.00
2022-09-06T01:29:33.277Z,1.00
2022-09-06T01:32:10.546Z,1.00
2022-09-06T01:34:47.998Z,1.00
2022-09-06T01:37:20.274Z,1.00
2022-09-06T01:39:47.879Z,1.00
2022-09-06T01:42:27.664Z,1.00
2022-09-06T01:45:01.887Z,1.00
2022-09-06T01:47:43.761Z,1.00
2022-09-06T01:50:30.810Z,1.00
2022-09-06T01:53:15.471Z,1.00
2022-09-06T01:55:48.685Z,1.00
2022-09-06T01:58:45.512Z,1.00
2022-09-06T02:01:22.220Z,1.00
2022-09-06T02:03:58.490Z,1.00
2022-09-06T02:06:34.594Z,1.00
2022-09-06T02:09:10.163Z,1.00
2022-09-06T02:11:48.361Z,1.00
2022-09-06T02:14:21.290Z,1.00
2022-09-06T02:16:50.616Z,1.00
2022-09-06T02:19:39.768Z,1.00
2022-09-06T02:22:10.444Z,1.00
2022-09-06T02:24:40.740Z,1.00
2022-09-06T02:27:08.604Z,1.00
2022-09-06T02:29:35.957Z,1.00
2022-09-06T02:32:18.082Z,1.00
2022-09-06T02:34:46.304Z,4.50
2022-09-06T02:37:15.250Z,1.00
2022-09-06T02:39:42.584Z,1.00
2022-09-06T02:42:11.651Z,1.00
2022-09-06T02:44:38.840Z,1.00
2022-09-06T02:47:07.130Z,1.00
2022-09-06T02:49:35.262Z,1.00
2022-09-06T02:52:02.514Z,1.00
2022-09-06T02:54:29.654Z,1.00
2022-09-06T02:56:57.593Z,1.00
2022-09-06T02:59:24.744Z,1.00
2022-09-06T03:01:51.872Z,1.00
2022-09-06T03:04:19.237Z,1.00
2022-09-06T03:06:46.586Z,1.00
2022-09-06T03:09:13.863Z,1.00
2022-09-06T03:11:41.232Z,1.00
2022-09-06T03:14:08.810Z,1.00
2022-09-06T03:16:37.095Z,1.00
2022-09-06T03:19:04.656Z,1.00
2022-09-06T03:21:32.115Z,1.00
2022-09-06T03:23:59.411Z,1.00
2022-09-06T03:26:26.773Z,1.00
2022-09-06T03:28:54.285Z,1.00
2022-09-06T03:31:21.596Z,2.80
2022-09-06T03:33:48.981Z,1.00
2022-09-06T03:36:16.068Z,1.00
2022-09-06T03:38:43.269Z,1.00
2022-09-06T03:41:10.570Z,1.00
2022-09-06T03:43:37.682Z,1.00
2022-09-06T03:46:04.874Z,1.00
2022-09-06T03:48:32.223Z,1.00
2022-09-06T03:51:00.152Z,1.00
2022-09-06T03:53:28.804Z,1.00
2022-09-06T03:55:58.159Z,1.00
2022-09-06T03:58:30.414Z,1.00
2022-09-06T04:01:04.542Z,1.00
2022-09-06T04:03:32.070Z,1.00
2022-09-06T04:06:00.012Z,1.00
2022-09-06T04:08:27.575Z,1.00
2022-09-06T04:10:56.163Z,1.00
2022-09-06T04:13:24.961Z,1.00
2022-09-06T04:15:52.671Z,1.00
2022-09-06T04:18:20.759Z,1.00
2022-09-06T04:20:49.592Z,99.90
2022-09-06T04:23:17.698Z,99.90
2022-09-06T04:25:48.763Z,99.90
2022-09-06T04:28:18.412Z,99.90
2022-09-06T04:30:52.113Z,99.90
2022-09-06T04:33:19.782Z,99.90
2022-09-06T04:35:50.499Z,1.00
2022-09-06T04:38:17.648Z,99.90
2022-09-06T04:40:44.951Z,88.50
2022-09-06T04:43:12.113Z,8.00
2022-09-06T04:45:39.296Z,99.90
2022-09-06T04:48:06.703Z,46.80
2022-09-06T04:50:34.669Z,99.90
2022-09-06T04:53:11.110Z,99.90
2022-09-06T04:55:38.782Z,99.90
2022-09-06T04:58:06.343Z,99.90
2022-09-06T05:00:35.507Z,99.90
2022-09-06T05:03:02.622Z,99.90
2022-09-06T05:05:29.677Z,99.90
2022-09-06T05:07:57.394Z,99.90
2022-09-06T05:10:24.983Z,99.90
2022-09-06T05:12:53.808Z,99.90
2022-09-06T05:15:22.653Z,99.90
2022-09-06T05:17:49.957Z,99.90
2022-09-06T05:20:17.878Z,99.90
2022-09-06T05:22:53.443Z,99.90
2022-09-06T05:25:20.863Z,99.90
2022-09-06T05:27:48.428Z,99.90
2022-09-06T05:30:17.821Z,99.90
2022-09-06T05:32:45.136Z,99.90
2022-09-06T05:35:13.699Z,99.90
2022-09-06T05:37:40.989Z,99.90
2022-09-06T05:40:08.962Z,99.90
2022-09-06T05:42:36.430Z,99.90
2022-09-06T05:45:03.830Z,99.90
2022-09-06T05:47:34.405Z,99.90
2022-09-06T05:50:02.693Z,99.90
2022-09-06T05:52:30.220Z,99.90
2022-09-06T05:54:57.294Z,99.90
2022-09-06T05:57:24.728Z,99.90
2022-09-06T05:59:53.538Z,99.90
2022-09-06T06:02:24.690Z,99.90
2022-09-06T06:04:52.331Z,99.90
2022-09-06T06:07:19.454Z,99.90
2022-09-06T06:09:46.687Z,99.90
2022-09-06T06:12:13.941Z,99.90
2022-09-06T06:14:41.140Z,99.90
2022-09-06T06:17:08.280Z,99.90
2022-09-06T06:19:35.754Z,99.90
2022-09-06T06:22:02.927Z,99.90
2022-09-06T06:24:30.042Z,99.90
2022-09-06T06:26:57.403Z,99.90
2022-09-06T06:29:25.397Z,99.90
2022-09-06T06:31:52.638Z,99.90
2022-09-06T06:34:21.960Z,99.90
2022-09-06T06:36:49.223Z,99.90
2022-09-06T06:39:16.339Z,99.90
2022-09-06T06:41:43.717Z,99.90
2022-09-06T06:44:31.506Z,99.90
2022-09-06T06:47:01.962Z,99.90
2022-09-06T06:49:29.857Z,99.90
2022-09-06T06:51:56.977Z,99.90
2022-09-06T06:54:24.920Z,99.90
2022-09-06T06:56:52.179Z,99.90
2022-09-06T06:59:19.295Z,99.90
2022-09-06T07:01:46.913Z,99.90
2022-09-06T07:04:14.325Z,99.90
2022-09-06T07:12:28.425Z,99.90
2022-09-06T07:14:55.796Z,99.90
2022-09-06T07:17:22.999Z,99.90
2022-09-06T07:22:38.602Z,99.90
2022-09-06T07:25:07.085Z,99.90
2022-09-06T07:27:50.318Z,99.90
2022-09-06T07:30:20.080Z,99.90
2022-09-06T07:32:47.998Z,99.90
2022-09-06T07:35:15.288Z,99.90
2022-09-06T07:37:42.688Z,99.90
2022-09-06T07:40:10.845Z,99.90
2022-09-06T07:42:38.130Z,99.90
2022-09-06T07:45:05.935Z,99.90
2022-09-06T07:53:12.895Z,99.90
2022-09-06T07:55:44.899Z,99.90
2022-09-06T07:58:12.004Z,99.90
2022-09-06T08:00:41.221Z,99.90
2022-09-06T08:03:09.178Z,99.90
2022-09-06T08:11:14.237Z,99.90
2022-09-06T08:13:42.393Z,99.90
2022-09-06T08:16:11.484Z,99.90
2022-09-06T08:18:38.762Z,99.90
2022-09-06T08:21:14.483Z,99.90
2022-09-06T08:23:46.156Z,99.90
2022-09-06T08:26:15.284Z,99.90
2022-09-06T08:28:42.602Z,99.90
2022-09-06T08:31:14.868Z,99.90
2022-09-06T08:33:43.419Z,99.90
2022-09-06T08:36:12.028Z,99.90
2022-09-06T08:38:39.222Z,99.90
2022-09-06T08:41:26.203Z,99.90
2022-09-06T08:47:12.746Z,99.90
2022-09-06T08:49:47.914Z,99.90
2022-09-06T08:52:33.695Z,99.90
2022-09-06T08:55:32.012Z,99.90
2022-09-06T08:58:15.093Z,99.90
2022-09-06T09:00:47.763Z,99.90
2022-09-06T09:03:20.131Z,99.90
2022-09-06T09:05:53.906Z,99.90
2022-09-06T09:08:23.526Z,99.90
2022-09-06T09:10:57.942Z,99.90
2022-09-06T09:13:28.331Z,99.90
2022-09-06T09:15:55.450Z,99.90
2022-09-06T09:18:27.072Z,99.90
2022-09-06T09:20:54.527Z,99.90
2022-09-06T09:23:22.024Z,99.90
2022-09-06T09:25:52.755Z,99.90
2022-09-06T09:28:24.161Z,99.90
2022-09-06T09:30:56.877Z,99.90
2022-09-06T09:33:35.375Z,99.90
2022-09-06T09:36:07.520Z,99.90
2022-09-06T09:38:44.374Z,99.90
2022-09-06T09:41:29.176Z,99.90
2022-09-06T09:44:04.869Z,99.90
2022-09-06T09:46:39.962Z,99.90
2022-09-06T09:49:22.417Z,99.90
2022-09-06T09:52:06.751Z,99.90
2022-09-06T09:54:38.424Z,99.90
2022-09-06T09:57:12.087Z,99.90
2022-09-06T09:59:44.161Z,99.90
2022-09-06T10:02:52.431Z,99.90
2022-09-06T10:05:21.321Z,99.90
2022-09-06T10:07:51.763Z,99.90
2022-09-06T10:10:28.374Z,99.90
2022-09-06T10:13:29.489Z,99.90
2022-09-06T10:16:03.442Z,99.90
2022-09-06T10:18:32.447Z,99.90
2022-09-06T10:21:03.729Z,99.90
2022-09-06T10:26:59.723Z,99.90
2022-09-06T10:29:40.958Z,99.90
2022-09-06T10:32:36.280Z,99.90
2022-09-06T10:35:15.049Z,99.90
2022-09-06T10:37:53.799Z,99.90
2022-09-06T10:40:42.348Z,99.90
2022-09-06T10:43:19.218Z,99.90
2022-09-06T10:46:11.949Z,99.90
2022-09-06T10:48:51.467Z,99.90
2022-09-06T10:51:37.626Z,99.90
2022-09-06T10:54:16.715Z,99.90
2022-09-06T10:57:06.987Z,99.90
2022-09-06T10:59:39.666Z,99.90
2022-09-06T11:02:12.467Z,99.90
2022-09-06T11:07:33.785Z,99.90
2022-09-06T11:10:24.998Z,99.90
2022-09-06T11:13:10.480Z,99.90
2022-09-06T11:15:44.634Z,99.90
2022-09-06T11:18:22.846Z,99.90
2022-09-06T11:21:22.947Z,99.90
2022-09-06T11:24:00.593Z,99.90
2022-09-06T11:26:37.029Z,99.90
2022-09-06T11:29:19.784Z,99.90
2022-09-06T11:34:54.517Z,99.90
2022-09-06T11:37:39.589Z,99.90
2022-09-06T11:40:27.008Z,99.90
2022-09-06T11:42:55.698Z,99.90
2022-09-06T11:45:43.334Z,99.90
2022-09-06T11:48:26.567Z,99.90
2022-09-06T11:50:53.861Z,99.90
2022-09-06T11:53:23.979Z,99.90
2022-09-06T11:56:00.251Z,99.90
2022-09-06T11:58:50.524Z,99.90
2022-09-06T12:01:20.838Z,99.90
2022-09-06T12:04:07.448Z,99.90
2022-09-06T12:06:44.015Z,99.90
2022-09-06T12:09:35.105Z,99.90
2022-09-06T12:12:03.613Z,99.90
2022-09-06T12:14:41.410Z,99.90
2022-09-06T12:17:09.090Z,99.90
2022-09-06T12:19:44.868Z,99.90
2022-09-06T12:22:32.949Z,99.90
2022-09-06T12:25:18.326Z,99.90
2022-09-06T12:27:54.443Z,99.90
2022-09-06T12:30:37.398Z,99.90
2022-09-06T12:33:13.728Z,99.90
2022-09-06T12:35:56.811Z,99.90
2022-09-06T12:38:25.905Z,99.90
2022-09-06T12:40:58.453Z,99.90
2022-09-06T12:43:27.039Z,99.90
2022-09-06T12:45:54.547Z,99.90
2022-09-06T12:48:33.425Z,99.90
2022-09-06T12:51:06.330Z,99.90
2022-09-06T12:53:34.897Z,99.90
2022-09-06T12:56:05.307Z,99.90
2022-09-06T12:58:32.470Z,99.90
2022-09-06T13:01:07.606Z,99.90
2022-09-06T13:04:06.342Z,99.90
2022-09-06T13:06:38.690Z,99.90
2022-09-06T13:09:11.516Z,99.90
2022-09-06T13:11:43.981Z,99.90
2022-09-06T13:14:26.859Z,99.90
2022-09-06T13:17:00.016Z,99.90
2022-09-06T13:19:34.881Z,99.90
2022-09-06T13:22:05.333Z,99.90
2022-09-06T13:24:32.629Z,99.90
2022-09-06T13:26:59.888Z,99.90
2022-09-06T13:29:31.684Z,99.90
2022-09-06T13:32:02.315Z,99.90
2022-09-06T13:34:31.708Z,99.90
2022-09-06T13:37:08.002Z,99.90
2022-09-06T13:39:41.016Z,99.90
2022-09-06T13:42:33.661Z,99.90
2022-09-06T13:45:27.096Z,99.90
2022-09-06T13:48:03.525Z,99.90
2022-09-06T13:50:41.703Z,99.90
2022-09-06T13:53:08.788Z,99.90
2022-09-06T13:55:37.172Z,99.90
2022-09-06T13:58:04.506Z,99.90
2022-09-06T14:00:31.729Z,99.90
2022-09-06T14:02:59.066Z,99.90
2022-09-06T14:05:26.620Z,99.90
2022-09-06T14:07:54.273Z,99.90
2022-09-06T14:10:24.912Z,99.90
2022-09-06T14:12:53.888Z,99.90
2022-09-06T14:15:23.319Z,99.90
2022-09-06T14:17:50.649Z,99.90
2022-09-06T14:20:18.002Z,99.90
2022-09-06T14:22:45.013Z,99.90
2022-09-06T14:25:12.105Z,99.90
2022-09-06T14:27:39.517Z,99.90
2022-09-06T14:30:07.128Z,99.90
2022-09-06T14:32:34.483Z,99.90
2022-09-06T14:35:02.593Z,99.90
2022-09-06T14:37:29.751Z,99.90
2022-09-06T14:39:56.885Z,99.90
2022-09-06T14:42:24.702Z,99.90
2022-09-06T14:44:51.917Z,99.90
2022-09-06T14:47:18.984Z,99.90
2022-09-06T14:49:49.406Z,99.90
2022-09-06T14:52:18.486Z,99.90
2022-09-06T14:54:54.651Z,99.90
2022-09-06T14:57:22.091Z,99.90
2022-09-06T14:59:49.470Z,99.90
2022-09-06T15:02:19.846Z,99.90
2022-09-06T15:04:49.583Z,99.90
2022-09-06T15:07:16.582Z,99.90
2022-09-06T15:09:43.671Z,99.90
2022-09-06T15:12:11.114Z,99.90
2022-09-06T15:14:38.215Z,99.90
2022-09-06T15:17:08.833Z,99.90
2022-09-06T15:19:37.073Z,99.90
2022-09-06T15:22:05.896Z,99.90
2022-09-06T15:24:33.768Z,99.90
2022-09-06T15:27:01.108Z,99.90
2022-09-06T15:29:28.235Z,99.90
2022-09-06T15:31:55.791Z,99.90
2022-09-06T15:34:25.251Z,99.90
2022-09-06T15:36:53.676Z,99.90
2022-09-06T15:39:21.961Z,99.90
2022-09-06T15:41:50.632Z,99.90
2022-09-06T15:44:20.067Z,99.90
2022-09-06T15:46:52.349Z,99.90
2022-09-06T15:49:28.747Z,99.90
2022-09-06T15:51:58.301Z,99.90
2022-09-06T15:54:44.927Z,99.90
2022-09-06T15:57:13.477Z,99.90
2022-09-06T15:59:42.570Z,99.90
2022-09-06T16:02:09.970Z,99.90
2022-09-06T16:04:37.063Z,99.90
2022-09-06T16:07:05.840Z,99.90
2022-09-06T16:09:33.242Z,99.90
2022-09-06T16:12:00.301Z,99.90
2022-09-06T16:14:29.184Z,99.90
2022-09-06T16:16:57.521Z,99.90
2022-09-06T16:19:26.084Z,99.90
2022-09-06T16:21:53.601Z,99.90
2022-09-06T16:24:21.413Z,99.90
2022-09-06T16:26:48.724Z,99.90
2022-09-06T16:29:18.223Z,99.90
2022-09-06T16:31:46.140Z,99.90
2022-09-06T16:34:14.849Z,99.90
2022-09-06T16:36:42.160Z,99.90
2022-09-06T16:39:09.941Z,99.90
2022-09-06T16:41:43.183Z,99.90
2022-09-06T16:44:19.071Z,99.90
2022-09-06T16:46:48.485Z,99.90
2022-09-06T16:49:17.669Z,99.90
2022-09-06T16:51:46.008Z,99.90
2022-09-06T16:54:14.613Z,99.90
2022-09-06T16:56:42.439Z,99.90
2022-09-06T16:59:10.812Z,99.90
2022-09-06T17:01:41.426Z,99.90
2022-09-06T17:04:09.741Z,99.90
2022-09-06T17:06:44.507Z,99.90
2022-09-06T17:09:18.751Z,99.90
2022-09-06T17:11:47.661Z,99.90
2022-09-06T17:14:14.911Z,99.90
2022-09-06T17:17:00.856Z,99.90
2022-09-06T17:19:29.701Z,99.90
2022-09-06T17:21:56.863Z,99.90
2022-09-06T17:24:24.104Z,99.90
2022-09-06T17:26:51.423Z,99.90
2022-09-06T17:29:18.848Z,99.90
2022-09-06T17:31:46.052Z,1.00
2022-09-06T17:34:13.298Z,99.90
2022-09-06T17:36:40.450Z,99.90
2022-09-06T17:39:10.625Z,99.90
2022-09-06T17:41:45.608Z,99.90
2022-09-06T17:44:15.101Z,99.90
2022-09-06T17:46:57.403Z,99.90
2022-09-06T17:49:32.572Z,81.60
2022-09-06T17:52:00.228Z,69.50
2022-09-06T17:54:28.304Z,99.90
2022-09-06T17:56:55.537Z,99.90
2022-09-06T17:59:23.145Z,99.90
2022-09-06T18:01:50.293Z,1.00
2022-09-06T18:04:17.655Z,99.90
2022-09-06T18:06:46.821Z,99.90
2022-09-06T18:09:16.337Z,99.90
2022-09-06T18:11:45.958Z,99.90
2022-09-06T18:14:20.649Z,99.90
2022-09-06T18:16:50.801Z,99.90
2022-09-06T18:19:18.831Z,29.30
2022-09-06T18:21:47.196Z,1.00
2022-09-06T18:24:14.682Z,1.00
2022-09-06T18:26:43.114Z,99.90
2022-09-06T18:29:13.174Z,99.90
2022-09-06T18:31:41.574Z,98.60
2022-09-06T18:34:09.348Z,1.00
2022-09-06T18:36:38.770Z,99.90
2022-09-06T18:39:06.667Z,99.90
2022-09-06T18:41:52.854Z,99.90
2022-09-06T18:44:22.416Z,99.90
2022-09-06T18:46:49.985Z,99.90
2022-09-06T18:49:17.507Z,99.90
2022-09-06T18:51:45.538Z,99.90
2022-09-06T18:54:13.888Z,99.90
2022-09-06T18:56:41.679Z,44.00
2022-09-06T18:59:10.828Z,1.00
2022-09-06T19:01:38.851Z,99.90
2022-09-06T19:04:07.574Z,99.90
2022-09-06T19:06:36.592Z,99.90
2022-09-06T19:09:08.510Z,99.90
2022-09-06T19:11:35.839Z,66.10
2022-09-06T19:14:04.263Z,1.00
2022-09-06T19:16:31.950Z,99.50
2022-09-06T19:19:07.440Z,99.90
2022-09-06T19:21:39.361Z,99.90
2022-09-06T19:24:10.673Z,99.90
2022-09-06T19:26:41.737Z,99.90
2022-09-06T19:29:13.717Z,1.00
2022-09-06T19:31:42.211Z,99.90
2022-09-06T19:34:10.351Z,99.90
2022-09-06T19:36:37.498Z,99.90
2022-09-06T19:39:13.147Z,99.90
2022-09-06T19:41:47.809Z,1.00
2022-09-06T19:44:16.429Z,99.90
2022-09-06T19:46:46.407Z,99.90
2022-09-06T19:49:19.367Z,99.90
2022-09-06T19:51:48.995Z,99.90
2022-09-06T19:54:16.874Z,99.90
2022-09-06T19:56:47.586Z,99.90
2022-09-06T19:59:16.192Z,99.90
2022-09-06T20:01:44.871Z,99.90
2022-09-06T20:04:13.365Z,99.90
2022-09-06T20:06:40.992Z,99.90
2022-09-06T20:09:09.928Z,99.90
2022-09-06T20:11:38.176Z,99.90
2022-09-06T20:14:06.155Z,99.90
2022-09-06T20:16:34.051Z,99.90
2022-09-06T20:19:04.210Z,99.90
2022-09-06T20:21:31.950Z,99.90
2022-09-06T20:23:59.455Z,99.90
2022-09-06T20:26:30.134Z,99.90
2022-09-06T20:28:59.718Z,99.90
2022-09-06T20:31:28.964Z,97.70
2022-09-06T20:33:58.245Z,99.90
2022-09-06T20:36:25.939Z,99.90
2022-09-06T20:38:53.479Z,14.30
2022-09-06T20:41:23.547Z,99.90
2022-09-06T20:43:53.267Z,99.90
2022-09-06T20:46:22.520Z,99.90
2022-09-06T20:48:50.154Z,99.90
2022-09-06T20:51:26.166Z,1.00
2022-09-06T20:53:57.414Z,99.90
2022-09-06T20:56:31.136Z,1.00
2022-09-06T20:59:00.872Z,99.90
2022-09-06T21:01:30.967Z,99.90
2022-09-06T21:04:00.155Z,99.90
2022-09-06T21:06:29.456Z,1.00
2022-09-06T21:08:57.636Z,1.00
2022-09-06T21:11:25.724Z,99.90
2022-09-06T21:13:57.786Z,73.20
2022-09-06T21:16:27.797Z,93.90
2022-09-06T21:18:57.501Z,1.00
2022-09-06T21:21:26.476Z,99.90
2022-09-06T21:23:54.110Z,99.90
2022-09-06T21:26:22.420Z,30.40
2022-09-06T21:28:50.191Z,1.00
2022-09-06T21:31:27.772Z,99.90
2022-09-06T21:33:56.942Z,92.60
2022-09-06T21:36:36.266Z,1.00
2022-09-06T21:39:12.973Z,33.50
2022-09-06T21:41:42.248Z,47.20
2022-09-06T21:44:10.446Z,99.90
2022-09-06T21:46:39.048Z,1.00
2022-09-06T21:49:11.865Z,99.90
2022-09-06T21:51:39.631Z,93.50
2022-09-06T21:54:07.248Z,99.90
2022-09-06T21:56:36.582Z,99.90
2022-09-06T21:59:04.914Z,1.00
2022-09-06T22:01:34.327Z,99.90
2022-09-06T22:04:02.352Z,42.90
2022-09-06T22:06:31.286Z,1.00
2022-09-06T22:09:01.045Z,99.90
2022-09-06T22:11:33.207Z,99.90
2022-09-06T22:14:02.430Z,99.90
2022-09-06T22:16:32.570Z,1.00
2022-09-06T22:18:59.772Z,99.90
2022-09-06T22:21:26.915Z,99.90
2022-09-06T22:23:57.413Z,99.90
2022-09-06T22:26:26.634Z,1.00
2022-09-06T22:28:55.783Z,97.10
2022-09-06T22:31:24.609Z,99.90
2022-09-06T22:33:52.213Z,1.00
2022-09-06T22:36:19.632Z,53.40
2022-09-06T22:38:47.131Z,99.90
2022-09-06T22:41:14.329Z,99.90
2022-09-06T22:43:41.461Z,99.90
2022-09-06T22:46:10.290Z,99.90
2022-09-06T22:48:37.573Z,99.90
2022-09-06T22:51:06.144Z,99.90
2022-09-06T22:53:34.083Z,50.20
2022-09-06T22:56:01.646Z,1.00
2022-09-06T22:58:29.008Z,99.90
2022-09-06T23:00:56.867Z,99.90
2022-09-06T23:03:24.084Z,99.90
2022-09-06T23:05:51.205Z,99.90
2022-09-06T23:08:18.473Z,99.90
2022-09-06T23:10:45.546Z,99.90
2022-09-06T23:13:12.610Z,99.90
2022-09-06T23:15:46.193Z,99.90
2022-09-06T23:18:16.561Z,1.00
2022-09-06T23:20:43.833Z,99.90
2022-09-06T23:23:11.004Z,19.20
2022-09-06T23:25:38.875Z,99.90
2022-09-06T23:28:06.942Z,99.90
2022-09-06T23:30:37.625Z,99.90
2022-09-06T23:33:05.710Z,99.90
2022-09-06T23:35:32.925Z,1.00
2022-09-06T23:38:00.009Z,29.80
2022-09-06T23:40:27.413Z,99.90
2022-09-06T23:42:54.828Z,99.90
2022-09-06T23:45:21.971Z,88.60
2022-09-06T23:47:49.064Z,1.00
2022-09-06T23:50:16.513Z,26.80
2022-09-06T23:52:43.563Z,99.90
2022-09-06T23:55:10.978Z,99.90
2022-09-06T23:57:38.625Z,99.90
